Edchera, Western Sahara
Current Conditions -  °F | °C
As of 2:00 PM on Thursday 23 Oct 2014 (Local Time) from GMML Reporting Station
Clear Clear  
Wind Chill: 90°   Ceiling: Unl
Heat Index: 91°   Visibility: 6mi
Dew Point: 64°   Wind: 10mph
Humidity: 43%   Direction: 360°N
Pressure: 29.97"   Gusts: NA
Location:  27.1°N, 13.3°W
Report Text: GMML 231400Z AUTO 36009KT 320V050 9999NDV NCD 32/18 Q1015
Loading
Personal Weather Stations






























Interactive Weather Map
Tropical Storm Tracking
New forecast layout! Learn more

10-Day Weather Forecast

Advertisements
Track Severe Weather on mobile